ESSB

Stockholm-Bromma Airport

Stockholm, Sweden
METAR ESSB 181520Z 29009KT CAVOK 12/03 Q1017
Observed Flight Rules
Oct-18 @ 15:20 UTC (37 minutes ago) Visual Flight Rules
Wind Visibility Clouds
290° at 9 knots 10,000+ meters
  • Clear skies
Temperatures Readings
Current 12°C / 54°F
Dewpoint 3°C / 37°F
Humidity 54%
Altimeter 30.03" Hg
Pressure 1017 hPa
Elevation 11
METAR ESSB 181520Z 29009KT CAVOK 12/03 Q1017
Observed Flight Rules
Oct-18 @ 15:20 UTC
(37 minutes ago)
VFR
Wind Visibility
290° at 9 knots 10,000+ meters
Clouds
  • Clear skies
Temperature Dewpoint
12°C / 54°F 3°C / 37°F
Humidity Altimeter Pressure
54% 30.03" Hg 1017 hPa